Terminal Aerodrome Forecast
Issued by NWS Houston/Galveston, TX

Home | Current Version | Previous Version | Text Only | Print | Product List | Glossary On
Versions: 1 2 3 4 5 6 7 8 9 10 11 12 13 14 15 16 17 18 19 20 21 22 23 24 25 26 27 28 29 30 31 32 33 34 35 36 37 38 39 40 41 42 43 44 45 46 47 48
502
FTUS44 KHGX 230655 AAA
TAFGLS
TAF AMD
KGLS 230655Z 2307/2406 33016G27KT 5SM -SHRA BR BKN028 OVC040
      TEMPO 2307/2309 32020G40KT 2SM +SHRA BR BKN012 OVC025
     FM231100 33023G33KT 6SM -RA BR OVC025
     FM231500 34022G32KT P6SM -RA OVC040
     FM231700 33022G30KT P6SM BKN090
     FM232200 34015G26KT P6SM SCT250
     FM240400 34012KT P6SM SCT250=

USA.gov is the U.S. government's official web portal to all federal, state and local government web resources and services.